Time;durP1;ratioP1;P1;durP2;ratioP2;P2;SDS_P1;SDS_P2;PMS_P1;PMS_P2;Temp;Humidity;BMP_temperature;BMP_pressure;BME280_temperature;BME280_humidity;BME280_pressure;Samples;Min_cycle;Max_cycle;Signal;HPM_P1;HPM_P2
2021/04/15 00:04:24;;;;;;;6.60;5.60;;;;;;;1.60;78.04;100304.97;233069;1174;114398;-65
2021/04/15 00:09:27;;;;;;;;;;;;;;;1.60;78.24;100299.71;234126;1174;114930;-65
2021/04/15 00:14:31;;;;;;;6.03;3.77;;;;;;;1.54;77.92;100300.36;234847;1175;104055;-65
2021/04/15 00:19:34;;;;;;;3.23;2.90;;;;;;;1.47;78.29;100294.13;233254;1176;115184;-65
2021/04/15 00:24:40;;;;;;;6.10;4.20;;;;;;;1.42;78.33;100296.42;234859;1176;116460;-65
2021/04/15 00:29:43;;;;;;;6.37;4.47;;;;;;;1.47;78.14;100288.88;234959;1176;114444;-65
2021/04/15 00:34:47;;;;;;;4.77;3.47;;;;;;;1.50;78.23;100283.30;235184;1174;114565;-65
2021/04/15 00:39:52;;;;;;;3.00;2.60;;;;;;;1.53;78.34;100280.32;235149;1170;115325;-65
2021/04/15 00:44:56;;;;;;;4.07;2.60;;;;;;;1.51;78.33;100282.31;235203;1175;115192;-65
2021/04/15 00:50:04;;;;;;;6.13;4.10;;;;;;;1.55;77.82;100270.47;234072;1168;115925;-65
2021/04/15 00:55:14;;;;;;;3.03;2.83;;;;;;;1.57;78.19;100268.50;234094;1174;114932;-65
2021/04/15 01:00:25;;;;;;;7.00;5.85;;;;;;;1.55;78.11;100272.27;233430;1174;114663;-64
2021/04/15 01:05:30;;;;;;;5.97;4.77;;;;;;;1.54;78.85;100263.57;233947;1175;114943;-64
2021/04/15 01:10:38;;;;;;;6.70;4.90;;;;;;;1.54;78.39;100263.57;232806;1174;115372;-62
2021/04/15 01:15:48;;;;;;;3.30;2.70;;;;;;;1.50;78.49;100259.66;233402;1176;115530;-62
2021/04/15 01:21:10;;;;;;;3.35;2.98;;;;;;;1.43;78.73;100255.20;232535;1176;115379;-63
2021/04/15 01:26:28;;;;;;;5.83;3.60;;;;;;;1.42;78.66;100243.88;232422;1176;114443;-62
2021/04/15 01:31:44;;;;;;;5.07;2.93;;;;;;;1.44;78.74;100247.16;232663;1175;115423;-64
2021/04/15 01:37:06;;;;;;;5.63;3.43;;;;;;;1.45;79.06;100247.98;232718;1174;114899;-66
2021/04/15 01:42:19;;;;;;;2.25;2.03;;;;;;;1.42;79.37;100237.80;232813;1171;116090;-64
2021/04/15 01:47:33;;;;;;;6.63;4.13;;;;;;;1.45;79.49;100234.85;233818;1174;115067;-65
2021/04/15 01:52:40;;;;;;;4.38;3.40;;;;;;;1.52;79.27;100227.97;232863;1174;114667;-65
2021/04/15 01:57:52;;;;;;;6.50;5.58;;;;;;;1.54;79.66;100224.16;232932;1174;114499;-63
2021/04/15 02:03:01;;;;;;;9.05;5.60;;;;;;;1.53;79.48;100219.09;233542;1175;115999;-65
2021/04/15 02:08:17;;;;;;;6.40;5.27;;;;;;;1.60;79.24;100215.63;232506;1174;115408;-62
2021/04/15 02:13:21;;;;;;;5.80;5.15;;;;;;;1.61;79.30;100204.13;232462;1174;115892;-62
2021/04/15 02:18:48;;;;;;;6.08;5.48;;;;;;;1.61;79.92;100205.94;233535;1175;115200;-63
2021/04/15 02:24:00;;;;;;;9.30;6.05;;;;;;;1.61;79.98;100206.76;232791;1174;115519;-64
2021/04/15 02:29:05;;;;;;;7.15;5.38;;;;;;;1.63;79.61;100199.53;232750;1174;115041;-65
2021/04/15 02:34:17;;;;;;;5.90;5.43;;;;;;;1.67;79.92;100200.02;235016;1176;114542;-65
2021/04/15 02:39:33;;;;;;;4.75;3.88;;;;;;;1.66;80.07;100196.58;235052;1176;114792;-65
2021/04/15 02:44:49;;;;;;;6.20;5.33;;;;;;;1.73;79.12;100193.29;234692;1174;115069;-65
2021/04/15 02:49:56;;;;;;;5.05;4.63;;;;;;;1.81;79.99;100191.48;234432;1174;114588;-66
2021/04/15 02:55:05;;;;;;;6.08;4.80;;;;;;;1.79;79.41;100188.19;234480;1174;114946;-65
2021/04/15 03:00:14;;;;;;;4.45;4.00;;;;;;;1.80;79.32;100178.50;234344;1174;114819;-65
2021/04/15 03:05:21;;;;;;;6.80;5.98;;;;;;;1.82;79.85;100179.16;233956;1174;115007;-65
2021/04/15 03:10:37;;;;;;;5.63;4.80;;;;;;;1.82;79.60;100174.72;232608;1174;115038;-65
2021/04/15 03:15:47;;;;;;;4.93;4.53;;;;;;;1.80;79.38;100174.06;233811;1175;116823;-64
2021/04/15 03:20:58;;;;;;;5.33;4.37;;;;;;;1.76;79.73;100174.56;232840;1176;115901;-64
2021/04/15 03:26:17;;;;;;;6.25;5.00;;;;;;;1.78;79.39;100183.10;233276;1175;115458;-64
2021/04/15 03:31:29;;;;;;;5.13;4.10;;;;;;;1.75;79.25;100171.11;233877;1174;115537;-64
2021/04/15 03:36:40;;;;;;;4.77;4.07;;;;;;;1.72;79.83;100173.25;233038;1175;115292;-64
2021/04/15 03:41:47;;;;;;;6.53;4.40;;;;;;;1.67;79.38;100179.00;232582;1175;115829;-66
2021/04/15 03:47:00;;;;;;;6.03;5.30;;;;;;;1.68;79.19;100175.39;233182;1174;115379;-65
2021/04/15 03:52:18;;;;;;;4.15;3.10;;;;;;;1.65;79.82;100170.46;232921;1174;116182;-64
2021/04/15 03:57:24;;;;;;;4.47;3.67;;;;;;;1.55;79.81;100175.88;233157;1176;117354;-64
2021/04/15 04:02:44;;;;;;;4.63;4.18;;;;;;;1.52;79.22;100168.36;232727;1174;115846;-65
2021/04/15 04:08:02;;;;;;;2.60;2.40;;;;;;;1.50;79.19;100167.70;232791;1174;115410;-64
2021/04/15 04:13:40;;;;;;;4.20;3.80;;;;;;;1.45;79.86;100161.30;234232;1174;115363;-64
2021/04/15 04:18:57;;;;;;;5.00;4.50;;;;;;;1.39;79.81;100170.66;232576;1174;115144;-63
2021/04/15 04:24:19;;;;;;;5.58;4.55;;;;;;;1.38;79.73;100165.56;234132;1176;117310;-64
2021/04/15 04:29:32;;;;;;;3.85;3.55;;;;;;;1.39;79.56;100168.03;233090;1174;116018;-65
2021/04/15 04:34:39;;;;;;;4.00;3.00;;;;;;;1.41;79.99;100170.48;232732;1174;115626;-64
2021/04/15 04:39:43;;;;;;;5.58;5.18;;;;;;;1.38;79.89;100163.76;233698;1176;115894;-64
2021/04/15 04:44:58;;;;;;;5.60;5.15;;;;;;;1.44;79.42;100172.79;234081;1176;116854;-65
2021/04/15 04:50:09;;;;;;;5.13;4.47;;;;;;;1.40;79.32;100167.05;235212;1174;116152;-65
2021/04/15 04:55:39;;;;;;;4.23;3.83;;;;;;;1.37;79.22;100167.37;233456;1176;115621;-64
2021/04/15 05:00:50;;;;;;;4.70;4.23;;;;;;;1.38;79.72;100161.13;234324;1176;116171;-64
2021/04/15 05:06:04;;;;;;;6.03;4.70;;;;;;;1.46;79.26;100161.13;233575;1174;116537;-65
2021/04/15 05:11:08;;;;;;;4.70;4.30;;;;;;;1.49;79.59;100155.55;232952;1176;115626;-64
2021/04/15 05:16:11;;;;;;;4.73;4.28;;;;;;;1.47;79.71;100151.45;233346;1174;114524;-64
2021/04/15 05:21:23;;;;;;;5.17;4.67;;;;;;;1.46;79.47;100160.31;233595;1174;114867;-65
2021/04/15 05:26:37;;;;;;;3.38;3.15;;;;;;;1.45;79.59;100148.98;232812;1174;114551;-65
2021/04/15 05:31:43;;;;;;;3.60;3.30;;;;;;;1.46;79.46;100150.63;233119;1174;115215;-63
2021/04/15 05:36:51;;;;;;;3.60;3.30;;;;;;;1.47;79.17;100149.64;233339;1174;115245;-65
2021/04/15 05:41:58;;;;;;;4.48;4.08;;;;;;;1.49;79.46;100149.48;232799;1175;115050;-64
2021/04/15 05:47:05;;;;;;;5.30;4.08;;;;;;;1.55;79.66;100146.16;232652;1176;116086;-64
2021/04/15 05:52:29;;;;;;;4.28;3.88;;;;;;;1.57;79.80;100152.07;233284;1175;116138;-64
2021/04/15 05:57:46;;;;;;;3.67;3.43;;;;;;;1.58;79.53;100145.83;232754;1175;115628;-64
2021/04/15 06:02:53;;;;;;;4.90;4.50;;;;;;;1.53;79.98;100141.07;232749;1175;115283;-64
2021/04/15 06:08:05;;;;;;;4.98;4.58;;;;;;;1.57;79.40;100137.13;232960;1174;115331;-64
2021/04/15 06:13:16;;;;;;;4.65;4.13;;;;;;;1.60;79.32;100135.98;232494;1175;115425;-65
2021/04/15 06:18:50;;;;;;;9.50;5.33;;;;;;;1.60;79.58;100128.91;232658;1176;116446;-64
2021/04/15 06:24:08;;;;;;;4.80;4.40;;;;;;;1.63;79.41;100128.58;232796;1176;115341;-64
2021/04/15 06:29:48;;;;;;;5.00;3.60;;;;;;;1.72;79.63;100121.51;232556;1177;116570;-64
2021/04/15 06:34:57;;;;;;;6.85;6.35;;;;;;;1.80;79.61;100112.79;234363;1175;116057;-64
2021/04/15 06:40:10;;;;;;;8.50;5.47;;;;;;;1.86;79.53;100123.42;232684;1176;116164;-64
2021/04/15 06:46:05;;;;;;;6.27;3.50;;;;;;;1.88;79.33;100108.30;233398;1174;117008;-66
2021/04/15 06:51:33;;;;;;;6.67;5.83;;;;;;;1.96;79.68;100113.54;234442;1177;116870;-64
2021/04/15 06:57:10;;;;;;;4.87;4.27;;;;;;;2.06;79.70;100110.72;233198;1174;116613;-64
2021/04/15 07:02:34;;;;;;;4.05;3.60;;;;;;;2.14;79.17;100115.14;233244;1176;115613;-65
2021/04/15 07:07:43;;;;;;;4.63;3.90;;;;;;;2.20;79.39;100111.80;234111;1174;116295;-64
2021/04/15 07:13:10;;;;;;;5.50;4.20;;;;;;;2.21;79.97;100119.52;233419;1174;115036;-65
2021/04/15 07:18:39;;;;;;;4.30;3.90;;;;;;;2.38;78.89;100114.19;232951;1176;115696;-64
2021/04/15 07:24:21;;;;;;;3.88;3.58;;;;;;;2.52;78.84;100110.81;234281;1174;116066;-64
2021/04/15 07:29:42;;;;;;;5.05;3.45;;;;;;;2.63;78.91;100118.31;232532;1176;115815;-64
2021/04/15 07:35:23;;;;;;;4.97;4.43;;;;;;;2.75;79.19;100116.94;233315;1174;116243;-64
2021/04/15 07:40:51;;;;;;;5.00;4.50;;;;;;;2.85;78.82;100121.95;232691;1174;116477;-64
2021/04/15 07:46:32;;;;;;;5.65;3.93;;;;;;;2.88;79.67;100121.60;232623;1177;115982;-64
2021/04/15 07:52:09;;;;;;;5.73;4.77;;;;;;;2.90;79.17;100112.53;232648;1174;116154;-64
2021/04/15 07:57:38;;;;;;;5.03;4.47;;;;;;;3.08;79.06;100114.86;232748;1175;115501;-65
2021/04/15 08:02:45;;;;;;;4.63;4.13;;;;;;;3.17;78.93;100123.52;233010;1167;116584;-65
2021/04/15 08:07:48;;;;;;;;;;;;;;;3.15;79.41;100126.33;233278;1175;116235;-64
2021/04/15 08:13:14;;;;;;;3.40;3.10;;;;;;;3.21;78.25;100122.17;233291;1174;103008;-65
2021/04/15 08:18:41;;;;;;;3.38;3.05;;;;;;;3.26;79.01;100125.92;232711;1176;116468;-64
2021/04/15 08:24:13;;;;;;;5.78;4.08;;;;;;;3.34;78.87;100120.58;232499;1174;116061;-66
2021/04/15 08:29:39;;;;;;;3.00;2.70;;;;;;;3.41;79.14;100118.03;233346;1176;115999;-64
2021/04/15 08:35:21;;;;;;;5.45;4.60;;;;;;;3.49;78.35;100110.05;232746;1175;115117;-65
2021/04/15 08:40:47;;;;;;;4.55;4.15;;;;;;;3.63;78.84;100117.17;234203;1175;115081;-64
2021/04/15 08:45:59;;;;;;;3.53;3.33;;;;;;;3.76;78.74;100107.80;233188;1175;115132;-65
2021/04/15 08:51:08;;;;;;;4.60;2.25;;;;;;;3.83;79.21;100117.45;232928;1174;115373;-65
2021/04/15 08:56:45;;;;;;;4.15;3.63;;;;;;;3.99;79.01;100100.60;233450;1176;117346;-64
2021/04/15 09:01:48;;;;;;;5.30;4.77;;;;;;;4.12;78.95;100107.88;234821;1175;115517;-64
2021/04/15 09:07:00;;;;;;;3.67;3.37;;;;;;;4.18;78.44;100107.16;234712;1175;115576;-65
2021/04/15 09:12:25;;;;;;;3.30;2.88;;;;;;;4.26;78.62;100101.78;233726;1176;115227;-65
2021/04/15 09:17:38;;;;;;;8.53;5.10;;;;;;;4.35;77.89;100098.83;234378;1174;194545;-64
2021/04/15 09:23:09;;;;;;;3.93;3.50;;;;;;;4.47;77.92;100095.72;233267;1174;114724;-65
2021/04/15 09:28:38;;;;;;;2.70;2.50;;;;;;;4.47;78.36;100087.80;233411;1174;114780;-64
2021/04/15 09:33:59;;;;;;;1.93;1.83;;;;;;;4.43;78.21;100086.53;232524;1174;117190;-64
2021/04/15 09:39:31;;;;;;;3.75;2.40;;;;;;;4.47;77.89;100087.80;233546;1174;115045;-65
2021/04/15 09:45:02;;;;;;;3.40;3.10;;;;;;;4.58;78.45;100084.68;232439;1174;114691;-66
2021/04/15 09:50:19;;;;;;;3.47;3.17;;;;;;;4.58;78.74;100080.22;233036;1177;115402;-65
2021/04/15 09:55:49;;;;;;;5.25;4.73;;;;;;;4.57;78.83;100078.58;233066;1175;174023;-64
2021/04/15 10:00:58;;;;;;;3.75;3.45;;;;;;;4.64;78.65;100084.72;232532;1175;114903;-64
2021/04/15 10:06:09;;;;;;;1.58;1.48;;;;;;;4.68;78.45;100080.70;232878;1174;115552;-65
2021/04/15 10:11:31;;;;;;;2.80;1.77;;;;;;;4.68;78.64;100074.61;232820;1174;114577;-65
2021/04/15 10:16:42;;;;;;;2.43;1.93;;;;;;;4.78;78.16;100079.59;232773;1174;115894;-65
2021/04/15 10:22:03;;;;;;;2.70;2.50;;;;;;;4.79;78.19;100083.86;234327;1174;116232;-65
2021/04/15 10:27:31;;;;;;;3.60;3.40;;;;;;;4.84;78.18;100078.84;232609;1174;114593;-65
2021/04/15 10:33:03;;;;;;;4.13;3.83;;;;;;;4.85;78.30;100075.19;233186;1174;114497;-64
2021/04/15 10:38:31;;;;;;;4.38;3.28;;;;;;;4.78;77.88;100080.41;233214;1174;115890;-66
2021/04/15 10:43:55;;;;;;;11.30;5.05;;;;;;;4.71;78.11;100076.88;234933;1174;115435;-65
2021/04/15 10:49:16;;;;;;;7.37;4.33;;;;;;;4.69;78.41;100079.70;234300;1174;114961;-65
2021/04/15 10:54:27;;;;;;;3.90;3.55;;;;;;;4.64;77.49;100073.34;234186;1176;114833;-64
2021/04/15 10:59:37;;;;;;;6.15;5.65;;;;;;;4.61;78.41;100074.53;234945;1176;115149;-65
2021/04/15 11:04:40;;;;;;;4.75;4.35;;;;;;;4.65;78.06;100074.98;234879;1174;115133;-65
2021/04/15 11:09:47;;;;;;;3.08;2.40;;;;;;;4.67;78.03;100083.53;234368;1174;115084;-65
2021/04/15 11:14:51;;;;;;;3.35;3.05;;;;;;;4.70;77.60;100083.98;234169;1174;114949;-64
2021/04/15 11:20:24;;;;;;;0.83;0.83;;;;;;;4.77;78.07;100081.41;234151;1175;115775;-65
2021/04/15 11:25:30;;;;;;;3.33;3.03;;;;;;;4.74;77.71;100079.95;232603;1174;115932;-65
2021/04/15 11:30:45;;;;;;;4.37;2.70;;;;;;;4.74;78.23;100079.95;233932;1170;114921;-65
2021/04/15 11:36:11;;;;;;;4.10;3.80;;;;;;;4.79;77.86;100086.50;233274;1174;115661;-64
2021/04/15 11:41:22;;;;;;;4.23;2.90;;;;;;;4.87;77.37;100089.03;234142;1176;115352;-65
2021/04/15 11:46:34;;;;;;;4.83;4.30;;;;;;;4.94;77.81;100085.41;233354;1174;116282;-65
2021/04/15 11:51:58;;;;;;;4.03;3.40;;;;;;;4.87;77.59;100084.56;232614;1174;115617;-64
2021/04/15 11:57:20;;;;;;;7.80;5.27;;;;;;;4.79;77.58;100089.96;232823;1174;117418;-64
2021/04/15 12:02:45;;;;;;;7.90;5.78;;;;;;;4.93;78.62;100085.60;232787;1176;116039;-64
2021/04/15 12:07:59;;;;;;;5.55;3.00;;;;;;;5.01;78.48;100091.58;232560;1175;117041;-64
2021/04/15 12:13:33;;;;;;;9.57;6.47;;;;;;;5.13;77.78;100088.44;233206;1174;115860;-64
2021/04/15 12:18:40;;;;;;;6.23;2.23;;;;;;;4.99;77.27;100080.38;232643;1174;115766;-64
2021/04/15 12:23:52;;;;;;;9.87;6.80;;;;;;;4.87;78.01;100084.56;232785;1175;116309;-65
2021/04/15 12:29:22;;;;;;;14.43;9.90;;;;;;;4.83;78.14;100077.20;233996;1176;115165;-65
2021/04/15 12:34:58;;;;;;;3.00;2.30;;;;;;;4.85;77.73;100085.75;233610;1175;115699;-64
2021/04/15 12:40:03;;;;;;;7.53;6.80;;;;;;;4.90;78.28;100083.34;232529;1175;116273;-64
2021/04/15 12:45:20;;;;;;;7.67;6.97;;;;;;;5.02;78.18;100090.58;233980;1171;115783;-65
2021/04/15 12:50:27;;;;;;;5.78;5.25;;;;;;;5.09;78.20;100088.00;234023;1175;115025;-65
2021/04/15 12:55:30;;;;;;;3.95;3.48;;;;;;;5.31;77.34;100089.59;234107;1177;114792;-65
2021/04/15 13:00:48;;;;;;;3.50;2.95;;;;;;;5.51;77.53;100083.62;235013;1174;114954;-65
2021/04/15 13:06:02;;;;;;;25.70;13.03;;;;;;;5.73;77.75;100085.20;234989;1175;116094;-65
2021/04/15 13:11:17;;;;;;;29.13;16.17;;;;;;;6.01;77.55;100082.53;235030;1175;116755;-68
2021/04/15 13:16:32;;;;;;;10.00;7.57;;;;;;;5.88;77.34;100079.78;233238;1174;116083;-65
2021/04/15 13:21:56;;;;;;;4.25;3.90;;;;;;;5.77;76.88;100085.64;234584;1174;116410;-66
2021/04/15 13:27:34;;;;;;;20.30;11.87;;;;;;;5.87;77.06;100078.95;234742;1174;115993;-64
2021/04/15 13:33:11;;;;;;;6.80;6.10;;;;;;;5.89;76.81;100081.44;233709;1176;117656;-65
2021/04/15 13:43:47;;;;;;;5.67;5.17;;;;;;;5.75;76.87;100089.29;234459;1174;116257;-66
2021/04/15 13:49:09;;;;;;;4.95;4.55;;;;;;;5.65;77.54;100085.35;232515;1176;115981;-67
2021/04/15 13:54:16;;;;;;;5.93;5.38;;;;;;;5.89;77.11;100076.97;233546;1174;114696;-65
2021/04/15 14:04:45;;;;;;;5.78;4.68;;;;;;;5.95;77.38;100078.02;233232;1170;115045;-63
2021/04/15 14:09:57;;;;;;;8.20;6.28;;;;;;;5.94;77.23;100084.32;233108;1174;175891;-65
2021/04/15 14:15:02;;;;;;;9.28;8.48;;;;;;;5.75;77.26;100091.13;233207;1174;114953;-66
2021/04/15 14:20:22;;;;;;;8.23;7.40;;;;;;;5.64;77.42;100087.17;232514;1174;115236;-66
2021/04/15 14:25:38;;;;;;;10.13;8.13;;;;;;;5.57;76.57;100091.60;233516;1174;117086;-67
2021/04/15 14:30:42;;;;;;;8.55;7.50;;;;;;;5.58;76.97;100095.06;232932;1170;115729;-67
2021/04/15 14:35:48;;;;;;;7.45;6.73;;;;;;;5.64;77.33;100089.82;232733;1174;115221;-66
2021/04/15 14:40:59;;;;;;;7.80;7.00;;;;;;;5.57;77.85;100096.89;233565;1174;115417;-67
2021/04/15 14:46:33;;;;;;;6.33;5.78;;;;;;;5.56;76.95;100092.61;233444;1174;114816;-64
2021/04/15 14:51:40;;;;;;;9.80;4.70;;;;;;;5.46;76.75;100088.69;233169;1168;115434;-65
2021/04/15 14:56:46;;;;;;;8.40;5.80;;;;;;;5.49;77.47;100086.48;233373;1176;115929;-65
2021/04/15 15:01:51;;;;;;;5.73;5.23;;;;;;;5.63;77.47;100096.13;233220;1174;114802;-65
2021/04/15 15:06:55;;;;;;;8.33;6.43;;;;;;;5.89;77.64;100089.38;234012;1176;115637;-65
2021/04/15 15:12:03;;;;;;;7.28;6.63;;;;;;;5.90;77.36;100083.08;235029;1175;116330;-67
2021/04/15 15:17:09;;;;;;;6.30;5.75;;;;;;;5.69;77.05;100089.25;234126;1174;115975;-67
2021/04/15 15:22:35;;;;;;;5.20;4.40;;;;;;;5.61;77.17;100087.56;233389;1175;116427;-65
2021/04/15 15:27:40;;;;;;;6.97;5.70;;;;;;;5.54;77.38;100086.70;234472;1174;114521;-68
2021/04/15 15:32:45;;;;;;;6.10;5.50;;;;;;;5.51;77.47;100084.44;234259;1174;116689;-67
2021/04/15 15:37:52;;;;;;;7.00;5.80;;;;;;;5.56;78.13;100083.86;233261;1174;116822;-64
2021/04/15 15:42:56;;;;;;;6.07;5.47;;;;;;;5.50;77.46;100082.83;233920;1167;115289;-68
2021/04/15 15:48:00;;;;;;;6.85;6.18;;;;;;;5.47;77.85;100087.69;233820;1174;115226;-67
2021/04/15 15:53:28;;;;;;;12.65;10.20;;;;;;;5.35;77.42;100087.38;234050;1174;117394;-65
2021/04/15 15:58:35;;;;;;;15.10;10.30;;;;;;;5.31;77.82;100091.42;232498;1175;115756;-66
2021/04/15 16:03:39;;;;;;;9.20;7.40;;;;;;;5.24;77.49;100090.54;232693;1174;115719;-64
2021/04/15 16:08:43;;;;;;;38.10;23.13;;;;;;;5.13;77.96;100089.25;232507;1175;115480;-67
2021/04/15 16:13:47;;;;;;;39.23;27.50;;;;;;;5.09;78.50;100090.64;232409;1175;118565;-66
2021/04/15 16:18:52;;;;;;;19.03;12.87;;;;;;;5.03;77.97;100094.03;233258;1175;116576;-67
2021/04/15 16:24:33;;;;;;;19.58;9.18;;;;;;;4.94;78.63;100089.88;232696;1175;115953;-62
2021/04/15 16:29:38;;;;;;;6.63;5.50;;;;;;;4.94;78.53;100080.13;232316;1176;116032;-65
2021/04/15 16:34:42;;;;;;;9.53;8.05;;;;;;;4.93;78.56;100085.60;233094;1175;115325;-64
2021/04/15 16:39:48;;;;;;;7.30;5.85;;;;;;;4.90;78.96;100085.98;233257;1174;115395;-66
2021/04/15 16:44:52;;;;;;;7.58;6.75;;;;;;;4.83;78.74;100078.02;233318;1174;115759;-63
2021/04/15 16:49:56;;;;;;;9.03;8.08;;;;;;;4.86;78.11;100088.21;233828;1174;115040;-64
2021/04/15 16:55:00;;;;;;;8.20;7.33;;;;;;;4.85;78.82;100094.50;233517;1170;114784;-64
2021/04/15 17:00:15;;;;;;;5.73;4.93;;;;;;;4.81;78.92;100090.59;232738;1174;116012;-63
2021/04/15 17:05:18;;;;;;;4.73;4.37;;;;;;;4.75;78.59;100099.27;234925;1174;115507;-63
2021/04/15 17:10:21;;;;;;;5.83;5.23;;;;;;;4.74;78.50;100095.80;233355;1176;114662;-65
2021/04/15 17:15:24;;;;;;;6.95;5.45;;;;;;;4.68;78.74;100090.45;235083;1174;114901;-65
2021/04/15 17:20:30;;;;;;;6.20;5.40;;;;;;;4.65;79.19;100086.36;234995;1172;115388;-67
2021/04/15 17:25:37;;;;;;;6.47;4.90;;;;;;;4.70;78.76;100088.44;234101;1174;115052;-66
2021/04/15 17:30:44;;;;;;;8.28;5.50;;;;;;;4.71;78.46;100092.72;234355;1175;116250;-65
2021/04/15 17:35:48;;;;;;;7.70;5.57;;;;;;;4.66;79.07;100098.56;233514;1174;116088;-67
2021/04/15 17:40:56;;;;;;;8.03;5.03;;;;;;;4.61;79.55;100103.58;233003;1176;116919;-66
2021/04/15 17:45:59;;;;;;;6.55;4.85;;;;;;;4.62;79.08;100102.58;233381;1174;116253;-66
2021/04/15 17:51:08;;;;;;;7.20;5.03;;;;;;;4.62;79.60;100102.58;232847;1176;116330;-65
2021/04/15 17:56:17;;;;;;;6.63;6.03;;;;;;;4.59;78.49;100104.77;232744;1174;115588;-66
2021/04/15 18:01:20;;;;;;;6.75;6.15;;;;;;;4.51;78.97;100113.64;232521;1167;116382;-67
2021/04/15 18:06:25;;;;;;;6.90;6.20;;;;;;;4.51;79.11;100105.72;232274;1173;115554;-68
2021/04/15 18:11:28;;;;;;;6.70;5.95;;;;;;;4.51;79.01;100111.00;232610;1174;115687;-66
2021/04/15 18:16:31;;;;;;;6.45;5.23;;;;;;;4.50;79.74;100124.38;232552;1170;116645;-63
2021/04/15 18:21:36;;;;;;;8.30;6.13;;;;;;;4.47;79.62;100130.85;233175;1174;115806;-65
2021/04/15 18:26:40;;;;;;;8.45;7.53;;;;;;;4.43;79.51;100139.32;232682;1174;116386;-65
2021/04/15 18:31:43;;;;;;;7.80;6.65;;;;;;;4.47;79.40;100135.31;232547;1174;119137;-65
2021/04/15 18:36:46;;;;;;;7.03;6.28;;;;;;;4.46;79.33;100133.67;232749;1174;117714;-65
2021/04/15 18:42:03;;;;;;;6.90;5.47;;;;;;;4.37;79.58;100133.77;232630;1174;115005;-63
2021/04/15 18:47:07;;;;;;;9.17;7.13;;;;;;;4.38;79.31;100132.77;233786;1176;115495;-62
2021/04/15 18:52:15;;;;;;;7.97;7.17;;;;;;;4.42;79.90;100137.69;234135;1176;115325;-65
2021/04/15 18:57:21;;;;;;;7.77;7.07;;;;;;;4.38;79.85;100130.13;232902;1174;115520;-66
2021/04/15 19:02:29;;;;;;;8.55;7.18;;;;;;;4.34;80.17;100135.96;233659;1175;115647;-65
2021/04/15 19:07:33;;;;;;;10.50;8.18;;;;;;;4.35;79.80;100135.78;233683;1174;115587;-66
2021/04/15 19:12:37;;;;;;;11.38;8.75;;;;;;;4.38;79.78;100138.05;234035;1174;117793;-67
2021/04/15 19:17:41;;;;;;;8.23;7.53;;;;;;;4.35;79.59;100138.41;232544;1174;116111;-65
2021/04/15 19:22:46;;;;;;;10.08;8.18;;;;;;;4.42;80.26;100130.58;234795;1176;115102;-65
2021/04/15 19:27:51;;;;;;;10.13;7.63;;;;;;;4.45;80.14;100135.50;234844;1169;115585;-66
2021/04/15 19:32:54;;;;;;;10.93;9.63;;;;;;;4.45;80.12;100132.86;235047;1170;115683;-63
2021/04/15 19:37:58;;;;;;;13.77;8.73;;;;;;;4.44;79.55;100125.94;234026;1176;114820;-63
2021/04/15 19:43:03;;;;;;;14.53;9.88;;;;;;;4.44;80.02;100133.04;234275;1174;120091;-64
2021/04/15 19:48:12;;;;;;;11.07;9.73;;;;;;;4.45;80.29;100126.76;233621;1174;117029;-64
2021/04/15 19:53:18;;;;;;;13.55;10.03;;;;;;;4.45;80.32;100126.76;233015;1176;116309;-64
2021/04/15 19:58:25;;;;;;;16.50;10.63;;;;;;;4.51;80.03;100126.02;233706;1174;115259;-64
2021/04/15 20:03:30;;;;;;;16.15;12.88;;;;;;;4.54;79.89;100121.19;233867;1174;115737;-66
2021/04/15 20:08:41;;;;;;;12.30;10.60;;;;;;;4.52;79.95;100125.02;233145;1174;116210;-65
2021/04/15 20:13:47;;;;;;;19.65;13.50;;;;;;;4.49;80.39;100120.92;232602;1174;115455;-66
2021/04/15 20:18:52;;;;;;;22.98;12.60;;;;;;;4.52;79.55;100117.09;232490;1174;116040;-65
2021/04/15 20:23:55;;;;;;;14.40;12.00;;;;;;;4.47;80.29;100120.30;232762;1174;116308;-66
2021/04/15 20:29:00;;;;;;;16.88;12.53;;;;;;;4.43;80.13;100118.20;232783;1174;115938;-65
2021/04/15 20:34:04;;;;;;;21.60;14.40;;;;;;;4.43;79.93;100120.84;232704;1176;115729;-68
2021/04/15 20:39:08;;;;;;;19.70;14.07;;;;;;;4.40;80.33;100125.48;233287;1174;116881;-66
2021/04/15 20:44:13;;;;;;;16.70;13.78;;;;;;;4.42;80.74;100127.13;232613;1174;118056;-67
2021/04/15 20:49:19;;;;;;;17.10;13.80;;;;;;;4.46;80.06;100123.94;233319;1174;117009;-68
2021/04/15 20:54:23;;;;;;;18.45;12.90;;;;;;;4.42;80.71;100122.66;233345;1174;116446;-67
2021/04/15 20:59:27;;;;;;;16.03;13.70;;;;;;;4.42;80.79;100122.66;233240;1176;117635;-67
2021/04/15 21:04:31;;;;;;;21.33;13.40;;;;;;;4.42;80.08;100121.84;232740;1174;115964;-67
2021/04/15 21:09:35;;;;;;;21.03;13.75;;;;;;;4.48;80.72;100115.83;233954;1174;115155;-67
2021/04/15 21:14:40;;;;;;;24.48;17.08;;;;;;;4.52;80.54;100103.90;232773;1172;116714;-66
2021/04/15 21:19:44;;;;;;;21.77;14.53;;;;;;;4.47;80.22;100098.36;234415;1176;118018;-67
2021/04/15 21:24:50;;;;;;;27.30;18.73;;;;;;;4.47;80.06;100104.45;234985;1176;116391;-67
2021/04/15 21:29:54;;;;;;;15.70;12.03;;;;;;;4.47;80.61;100099.17;234985;1174;116955;-67
2021/04/15 21:35:00;;;;;;;20.43;14.63;;;;;;;4.50;80.20;100095.34;234959;1167;116328;-68
2021/04/15 21:40:08;;;;;;;21.33;15.13;;;;;;;4.51;80.61;100086.42;233425;1175;117009;-67
2021/04/15 21:45:12;;;;;;;16.00;13.10;;;;;;;4.55;80.26;100098.25;233659;1175;115453;-66
2021/04/15 21:50:20;;;;;;;18.20;12.70;;;;;;;4.50;80.46;100096.16;232438;1174;115939;-68
2021/04/15 21:55:24;;;;;;;18.38;13.33;;;;;;;4.44;80.31;100098.72;233286;1176;115950;-66
2021/04/15 22:00:35;;;;;;;14.78;12.28;;;;;;;4.46;80.88;100088.80;232838;1176;115817;-66
2021/04/15 22:05:39;;;;;;;17.53;14.30;;;;;;;4.47;81.13;100093.89;233150;1174;115190;-65
2021/04/15 22:11:12;;;;;;;15.55;12.30;;;;;;;4.47;81.22;100087.80;233402;1175;116574;-65
2021/04/15 22:16:18;;;;;;;19.13;15.33;;;;;;;4.51;80.48;100089.88;232557;1177;116344;-65
2021/04/15 22:21:38;;;;;;;21.85;14.20;;;;;;;4.50;80.50;100080.33;232685;1176;117060;-65
2021/04/15 22:26:44;;;;;;;21.70;13.00;;;;;;;4.47;81.08;100083.34;233182;1176;116866;-68
2021/04/15 22:31:48;;;;;;;16.00;12.10;;;;;;;4.48;81.12;100078.88;232636;1175;115777;-67
2021/04/15 22:36:53;;;;;;;17.30;13.57;;;;;;;4.47;80.99;100079.88;232688;1176;116108;-68
2021/04/15 22:41:57;;;;;;;14.30;11.10;;;;;;;4.43;81.21;100081.25;232939;1174;116125;-68
2021/04/15 22:47:19;;;;;;;23.50;14.37;;;;;;;4.42;80.43;100069.88;232935;1176;115918;-68
2021/04/15 22:52:24;;;;;;;16.58;11.45;;;;;;;4.41;80.51;100068.23;233387;1171;115852;-68
2021/04/15 22:57:28;;;;;;;14.18;12.18;;;;;;;4.44;81.45;100064.41;233258;1174;116605;-67
2021/04/15 23:02:32;;;;;;;20.38;13.63;;;;;;;4.41;80.55;100062.96;233735;1174;115589;-67
2021/04/15 23:07:37;;;;;;;15.97;13.20;;;;;;;4.42;80.45;100063.78;233130;1174;115702;-66
2021/04/15 23:12:42;;;;;;;12.43;11.15;;;;;;;4.39;80.77;100064.97;233923;1174;115880;-65
2021/04/15 23:17:50;;;;;;;25.80;14.60;;;;;;;4.35;80.84;100053.95;234022;1174;115456;-68
2021/04/15 23:22:54;;;;;;;16.57;12.20;;;;;;;4.42;81.06;100051.40;233684;1174;114820;-66
2021/04/15 23:27:58;;;;;;;17.47;13.53;;;;;;;4.45;81.03;100047.56;235238;1174;115061;-65
2021/04/15 23:33:03;;;;;;;18.63;12.40;;;;;;;4.44;81.01;100038.02;235159;1174;115017;-65
2021/04/15 23:38:10;;;;;;;19.68;13.38;;;;;;;4.50;81.10;100045.19;234665;1175;115326;-64
2021/04/15 23:43:14;;;;;;;17.70;14.00;;;;;;;4.47;80.76;100024.44;234924;1174;115201;-66
2021/04/15 23:48:21;;;;;;;18.45;12.80;;;;;;;4.40;80.85;100016.45;235073;1174;116182;-64
2021/04/15 23:53:26;;;;;;;16.77;13.20;;;;;;;4.44;80.59;100024.81;233099;1175;116521;-64
2021/04/15 23:58:31;;;;;;;18.73;12.77;;;;;;;4.44;80.63;100019.53;233134;1176;116283;-65
